createdAt,value
2023-01-26T00:01:00.852Z,28.80
2023-01-26T00:03:50.966Z,30.13
2023-01-26T00:06:39.089Z,31.13
2023-01-26T00:09:27.147Z,32.30
2023-01-26T00:12:15.178Z,30.75
2023-01-26T00:15:03.220Z,32.88
2023-01-26T00:17:52.054Z,35.35
2023-01-26T00:20:41.507Z,34.80
2023-01-26T00:23:30.482Z,32.73
2023-01-26T00:26:21.200Z,32.58
2023-01-26T00:29:09.268Z,34.28
2023-01-26T00:31:57.315Z,30.63
2023-01-26T00:34:46.374Z,31.98
2023-01-26T00:37:35.766Z,38.87
2023-01-26T00:40:23.876Z,38.35
2023-01-26T00:43:11.942Z,35.92
2023-01-26T00:46:00.011Z,39.17
2023-01-26T00:48:48.031Z,35.47
2023-01-26T00:51:36.174Z,36.27
2023-01-26T00:54:25.672Z,32.63
2023-01-26T00:57:13.721Z,35.13
2023-01-26T01:00:01.875Z,33.65
2023-01-26T01:02:49.851Z,33.72
2023-01-26T01:05:37.852Z,34.60
2023-01-26T01:08:25.810Z,38.63
2023-01-26T01:11:15.317Z,39.85
2023-01-26T01:14:03.420Z,39.28
2023-01-26T01:16:51.743Z,36.10
2023-01-26T01:19:40.600Z,42.27
2023-01-26T01:22:28.817Z,36.58
2023-01-26T01:25:17.392Z,42.28
2023-01-26T01:28:06.891Z,36.88
2023-01-26T01:30:55.134Z,36.05
2023-01-26T01:33:43.328Z,39.77
2023-01-26T01:36:31.449Z,40.60
2023-01-26T01:39:19.664Z,36.38
2023-01-26T01:42:08.024Z,39.50
2023-01-26T01:45:37.319Z,45.70
2023-01-26T01:48:29.761Z,37.83
2023-01-26T01:51:22.968Z,46.13
2023-01-26T01:54:14.295Z,42.30
2023-01-26T01:57:15.874Z,47.70
2023-01-26T02:00:09.064Z,39.08
2023-01-26T02:03:14.996Z,44.33
2023-01-26T02:06:08.856Z,46.30
2023-01-26T02:08:58.811Z,46.63
2023-01-26T02:11:48.034Z,45.17
2023-01-26T02:14:36.149Z,46.03
2023-01-26T02:17:24.523Z,48.87
2023-01-26T02:20:21.332Z,41.92
2023-01-26T02:23:21.320Z,43.88
2023-01-26T02:26:13.627Z,42.92
2023-01-26T02:29:02.925Z,45.53
2023-01-26T02:31:51.146Z,42.43
2023-01-26T02:34:39.308Z,39.05
2023-01-26T02:37:27.730Z,38.00
2023-01-26T02:40:26.963Z,44.55
2023-01-26T02:43:15.559Z,39.88
2023-01-26T02:46:03.636Z,44.40
2023-01-26T02:49:09.300Z,44.25
2023-01-26T02:51:57.561Z,40.72
2023-01-26T02:55:03.306Z,43.53
2023-01-26T02:57:52.564Z,42.05
2023-01-26T03:00:42.705Z,37.47
2023-01-26T03:03:42.447Z,44.58
2023-01-26T03:06:30.463Z,41.75
2023-01-26T03:09:19.326Z,45.75
2023-01-26T03:12:09.242Z,41.25
2023-01-26T03:15:14.944Z,36.07
2023-01-26T03:18:32.159Z,34.75
2023-01-26T03:21:37.858Z,38.80
2023-01-26T03:24:43.400Z,47.80
2023-01-26T03:27:37.306Z,39.78
2023-01-26T03:30:25.350Z,43.03
2023-01-26T03:33:14.933Z,43.50
2023-01-26T03:36:02.997Z,40.05
2023-01-26T03:38:51.125Z,36.88
2023-01-26T03:41:56.565Z,40.88
2023-01-26T03:45:01.999Z,37.30
2023-01-26T03:48:07.701Z,43.97
2023-01-26T03:51:14.991Z,41.10
2023-01-26T03:54:20.820Z,38.78
2023-01-26T03:57:08.860Z,40.92
2023-01-26T03:59:56.859Z,39.03
2023-01-26T04:03:02.503Z,41.88
2023-01-26T04:06:15.697Z,42.60
2023-01-26T04:09:06.202Z,39.85
2023-01-26T04:11:54.323Z,34.85
2023-01-26T04:14:59.904Z,40.30
2023-01-26T04:18:05.415Z,46.08
2023-01-26T04:21:11.201Z,40.05
2023-01-26T04:24:00.141Z,47.38
2023-01-26T04:26:49.824Z,38.25
2023-01-26T04:29:37.921Z,45.50
2023-01-26T04:32:27.240Z,48.38
2023-01-26T04:35:15.395Z,41.03
2023-01-26T04:38:03.437Z,40.65
2023-01-26T04:40:54.440Z,41.22
2023-01-26T04:43:43.853Z,39.33
2023-01-26T04:46:33.139Z,39.90
2023-01-26T04:49:21.354Z,39.92
2023-01-26T04:52:09.483Z,40.75
2023-01-26T04:54:57.530Z,39.88
2023-01-26T04:57:45.577Z,41.80
2023-01-26T05:00:35.182Z,41.60
2023-01-26T05:03:23.463Z,38.75
2023-01-26T05:06:11.457Z,39.60
2023-01-26T05:08:59.873Z,36.85
2023-01-26T05:11:47.867Z,41.83
2023-01-26T05:14:35.982Z,45.13
2023-01-26T05:17:25.908Z,34.90
2023-01-26T05:20:14.314Z,38.35
2023-01-26T05:23:02.312Z,35.97
2023-01-26T05:25:50.443Z,38.97
2023-01-26T05:28:38.882Z,34.25
2023-01-26T05:31:26.986Z,35.40
2023-01-26T05:34:16.324Z,28.73
2023-01-26T05:37:04.311Z,34.28
2023-01-26T05:39:52.710Z,31.50
2023-01-26T05:42:41.128Z,25.50
2023-01-26T05:45:29.401Z,28.55
2023-01-26T05:48:17.508Z,28.55
2023-01-26T05:51:07.184Z,25.08
2023-01-26T05:53:55.535Z,21.90
2023-01-26T05:56:43.592Z,24.40
2023-01-26T05:59:32.229Z,26.70
2023-01-26T06:02:20.456Z,24.45
2023-01-26T06:05:10.157Z,23.40
2023-01-26T06:07:59.601Z,28.33
2023-01-26T06:10:47.741Z,23.98
2023-01-26T06:13:36.059Z,22.30
2023-01-26T06:16:24.123Z,20.60
2023-01-26T06:19:12.865Z,18.63
2023-01-26T06:22:00.939Z,22.20
2023-01-26T06:24:50.295Z,11.93
2023-01-26T06:27:42.066Z,20.05
2023-01-26T06:30:30.433Z,15.98
2023-01-26T06:33:18.561Z,17.77
2023-01-26T06:36:09.984Z,17.57
2023-01-26T06:39:00.532Z,13.27
2023-01-26T06:41:50.194Z,23.35
2023-01-26T06:44:50.348Z,14.40
2023-01-26T06:47:38.865Z,15.13
2023-01-26T06:50:33.552Z,12.10
2023-01-26T06:53:31.705Z,12.48
2023-01-26T06:56:19.770Z,12.07
2023-01-26T06:59:10.840Z,12.10
2023-01-26T07:01:59.078Z,9.95
2023-01-26T07:04:47.757Z,9.80
2023-01-26T07:07:35.884Z,10.30
2023-01-26T07:10:23.948Z,13.27
2023-01-26T07:13:12.275Z,10.15
2023-01-26T07:16:04.124Z,12.38
2023-01-26T07:18:53.654Z,14.07
2023-01-26T07:21:41.802Z,12.88
2023-01-26T07:24:30.309Z,18.55
2023-01-26T07:27:18.661Z,13.93
2023-01-26T07:30:08.056Z,7.90
2023-01-26T07:33:00.587Z,12.40
2023-01-26T07:35:48.603Z,12.20
2023-01-26T07:38:36.638Z,10.25
2023-01-26T07:41:24.616Z,12.93
2023-01-26T07:44:12.793Z,10.40
2023-01-26T07:47:00.807Z,9.37
2023-01-26T07:49:50.155Z,10.75
2023-01-26T07:52:38.558Z,11.60
2023-01-26T07:55:26.563Z,11.63
2023-01-26T07:58:14.907Z,8.23
2023-01-26T08:01:10.898Z,10.27
2023-01-26T08:03:59.070Z,14.60
2023-01-26T08:06:49.746Z,7.95
2023-01-26T08:09:38.165Z,17.55
2023-01-26T08:12:26.265Z,8.88
2023-01-26T08:15:14.432Z,12.17
2023-01-26T08:18:05.090Z,13.60
2023-01-26T08:20:53.695Z,16.30
2023-01-26T08:23:43.184Z,13.15
2023-01-26T08:26:31.152Z,10.82
2023-01-26T08:29:20.758Z,12.53
2023-01-26T08:32:09.192Z,12.80
2023-01-26T08:34:57.366Z,10.77
2023-01-26T08:37:45.511Z,11.95
2023-01-26T08:40:34.821Z,11.63
2023-01-26T08:43:22.793Z,10.20
2023-01-26T08:46:11.363Z,14.63
2023-01-26T08:49:00.596Z,18.67
2023-01-26T08:51:48.638Z,13.00
2023-01-26T08:54:36.601Z,15.15
2023-01-26T08:57:26.224Z,13.27
2023-01-26T09:00:15.857Z,7.03
2023-01-26T09:03:06.017Z,10.65
2023-01-26T09:05:54.172Z,13.95
2023-01-26T09:08:42.487Z,8.45
2023-01-26T09:11:31.781Z,14.30
2023-01-26T09:14:21.234Z,15.88
2023-01-26T09:17:09.292Z,11.20
2023-01-26T09:19:57.272Z,11.35
2023-01-26T09:22:45.281Z,11.35
2023-01-26T09:25:33.362Z,12.27
2023-01-26T09:28:21.341Z,8.15
2023-01-26T09:31:12.531Z,12.73
2023-01-26T09:34:00.511Z,15.32
2023-01-26T09:36:48.562Z,18.65
2023-01-26T09:39:36.541Z,11.63
2023-01-26T09:42:36.952Z,16.17
2023-01-26T09:45:30.390Z,7.97
2023-01-26T09:48:28.726Z,10.70
2023-01-26T09:51:23.242Z,13.27
2023-01-26T09:54:22.445Z,10.10
2023-01-26T09:57:14.565Z,13.10
2023-01-26T10:00:09.224Z,15.55
2023-01-26T10:03:11.246Z,11.52
2023-01-26T10:06:07.004Z,10.13
2023-01-26T10:08:56.629Z,10.67
2023-01-26T10:11:49.335Z,13.65
2023-01-26T10:14:40.898Z,10.38
2023-01-26T10:17:34.642Z,10.05
2023-01-26T10:20:29.906Z,7.97
2023-01-26T10:23:23.266Z,7.60
2023-01-26T10:26:14.708Z,5.68
2023-01-26T10:29:03.232Z,9.18
2023-01-26T10:31:51.175Z,7.90
2023-01-26T10:34:41.189Z,5.30
2023-01-26T10:37:30.784Z,11.43
2023-01-26T10:40:21.590Z,6.03
2023-01-26T10:43:19.344Z,4.90
2023-01-26T10:46:07.321Z,11.13
2023-01-26T10:48:56.617Z,11.18
2023-01-26T10:51:46.190Z,7.13
2023-01-26T10:54:36.772Z,7.90
2023-01-26T10:57:29.362Z,6.45
2023-01-26T11:00:25.719Z,7.65
2023-01-26T11:03:19.808Z,3.78
2023-01-26T11:06:14.391Z,6.07
2023-01-26T11:09:18.066Z,7.82
2023-01-26T11:12:06.803Z,9.75
2023-01-26T11:15:04.049Z,6.13
2023-01-26T11:18:01.996Z,6.55
2023-01-26T11:21:01.781Z,5.40
2023-01-26T11:24:01.845Z,10.27
2023-01-26T11:27:13.021Z,11.85
2023-01-26T11:30:36.890Z,9.40
2023-01-26T11:33:31.148Z,7.72
2023-01-26T11:36:28.697Z,4.27
2023-01-26T11:39:26.946Z,7.00
2023-01-26T11:42:25.122Z,11.25
2023-01-26T11:45:25.111Z,8.48
2023-01-26T11:48:25.588Z,6.50
2023-01-26T11:51:21.690Z,10.43
2023-01-26T11:54:28.731Z,6.95
2023-01-26T11:57:27.674Z,10.27
2023-01-26T12:00:30.181Z,8.10
2023-01-26T12:03:25.913Z,5.65
2023-01-26T12:06:18.915Z,9.50
2023-01-26T12:09:11.678Z,10.48
2023-01-26T12:12:05.700Z,7.03
2023-01-26T12:14:58.421Z,6.95
2023-01-26T12:17:59.130Z,6.70
2023-01-26T12:20:52.126Z,5.40
2023-01-26T12:23:48.932Z,6.55
2023-01-26T12:26:44.325Z,13.60
2023-01-26T12:29:42.652Z,6.68
2023-01-26T12:32:30.759Z,9.32
2023-01-26T12:35:33.424Z,10.90
2023-01-26T12:38:29.671Z,9.60
2023-01-26T12:41:23.313Z,7.43
2023-01-26T12:44:21.674Z,11.32
2023-01-26T12:47:18.817Z,15.48
2023-01-26T12:50:14.580Z,9.37
2023-01-26T12:53:09.237Z,7.18
2023-01-26T12:56:04.697Z,9.90
2023-01-26T12:58:54.781Z,7.68
2023-01-26T13:01:44.627Z,11.10
2023-01-26T13:04:32.617Z,9.17
2023-01-26T13:07:31.256Z,6.78
2023-01-26T13:10:29.483Z,13.38
2023-01-26T13:13:29.125Z,6.00
2023-01-26T13:16:35.792Z,11.38
2023-01-26T13:19:37.646Z,9.43
2023-01-26T13:22:42.267Z,6.15
2023-01-26T13:25:33.262Z,6.55
2023-01-26T13:28:28.766Z,26.33
2023-01-26T13:31:31.842Z,9.48
2023-01-26T13:34:23.742Z,9.70
2023-01-26T13:37:16.366Z,7.35
2023-01-26T13:40:07.729Z,4.95
2023-01-26T13:43:07.655Z,6.05
2023-01-26T13:46:14.376Z,9.27
2023-01-26T13:49:02.599Z,9.53
2023-01-26T13:51:51.223Z,7.10
2023-01-26T13:54:42.363Z,7.70
2023-01-26T13:57:32.067Z,9.48
2023-01-26T14:00:22.517Z,3.97
2023-01-26T14:03:22.965Z,11.77
2023-01-26T14:06:15.452Z,11.85
2023-01-26T14:09:04.641Z,7.63
2023-01-26T14:11:59.378Z,9.40
2023-01-26T14:14:49.164Z,6.90
2023-01-26T14:17:49.765Z,11.13
2023-01-26T14:20:40.267Z,13.02
2023-01-26T14:23:29.308Z,8.73
2023-01-26T14:26:22.072Z,9.98
2023-01-26T14:29:21.707Z,10.20
2023-01-26T14:32:16.727Z,7.83
2023-01-26T14:35:22.616Z,8.88
2023-01-26T14:38:16.576Z,5.85
2023-01-26T14:41:04.693Z,4.80
2023-01-26T14:43:57.074Z,7.65
2023-01-26T14:46:57.642Z,8.60
2023-01-26T14:49:49.515Z,5.75
2023-01-26T14:52:41.104Z,6.60
2023-01-26T14:55:31.129Z,6.63
2023-01-26T14:58:23.170Z,4.88
2023-01-26T15:01:20.809Z,6.07
2023-01-26T15:04:26.147Z,8.57
2023-01-26T15:07:35.100Z,6.95
2023-01-26T15:10:33.591Z,3.90
2023-01-26T15:13:24.821Z,16.73
2023-01-26T15:16:18.281Z,7.63
2023-01-26T15:19:07.966Z,5.70
2023-01-26T15:21:56.090Z,5.13
2023-01-26T15:24:46.073Z,6.38
2023-01-26T15:27:38.559Z,8.15
2023-01-26T15:30:29.187Z,3.13
2023-01-26T15:33:46.370Z,4.28
2023-01-26T15:36:36.465Z,6.25
2023-01-26T15:39:24.521Z,8.27
2023-01-26T15:42:14.830Z,5.82
2023-01-26T15:45:04.647Z,5.70
2023-01-26T15:47:52.609Z,7.68
2023-01-26T15:50:40.931Z,4.18
2023-01-26T15:53:28.964Z,4.50
2023-01-26T15:56:17.549Z,6.50
2023-01-26T15:59:05.674Z,3.43
2023-01-26T16:01:55.320Z,4.53
2023-01-26T16:04:43.644Z,4.20
2023-01-26T16:07:32.069Z,4.85
2023-01-26T16:10:20.576Z,6.63
2023-01-26T16:13:10.531Z,4.60
2023-01-26T16:15:58.729Z,8.52
2023-01-26T16:18:48.045Z,9.15
2023-01-26T16:21:41.030Z,4.97
2023-01-26T16:24:29.692Z,6.53
2023-01-26T16:27:17.736Z,7.33
2023-01-26T16:30:06.867Z,7.80
2023-01-26T16:32:54.917Z,8.73
2023-01-26T16:35:44.652Z,4.05
2023-01-26T16:38:32.708Z,4.25
2023-01-26T16:41:24.985Z,5.50
2023-01-26T16:44:15.710Z,7.40
2023-01-26T16:47:05.720Z,9.52
2023-01-26T16:49:54.154Z,4.78
2023-01-26T16:52:43.447Z,6.40
2023-01-26T16:55:31.438Z,6.77
2023-01-26T16:58:19.647Z,3.38
2023-01-26T17:01:14.391Z,4.93
2023-01-26T17:04:02.562Z,7.13
2023-01-26T17:06:50.617Z,8.65
2023-01-26T17:09:40.011Z,7.00
2023-01-26T17:12:28.442Z,8.15
2023-01-26T17:15:16.477Z,10.15
2023-01-26T17:18:04.485Z,7.43
2023-01-26T17:20:52.492Z,9.18
2023-01-26T17:23:44.283Z,10.77
2023-01-26T17:26:33.763Z,3.47
2023-01-26T17:29:21.745Z,8.15
2023-01-26T17:32:09.747Z,6.22
2023-01-26T17:34:58.620Z,7.72
2023-01-26T17:37:46.972Z,6.37
2023-01-26T17:40:36.605Z,6.90
2023-01-26T17:43:26.273Z,6.93
2023-01-26T17:46:15.845Z,6.88
2023-01-26T17:49:03.836Z,7.85
2023-01-26T17:51:51.817Z,5.20
2023-01-26T17:54:40.060Z,4.68
2023-01-26T17:57:28.151Z,5.43
2023-01-26T18:00:19.048Z,4.43
2023-01-26T18:03:07.659Z,7.45
2023-01-26T18:05:57.001Z,3.73
2023-01-26T18:08:45.497Z,8.52
2023-01-26T18:11:33.784Z,5.18
2023-01-26T18:14:21.827Z,6.15
2023-01-26T18:17:11.190Z,5.60
2023-01-26T18:19:59.131Z,10.63
2023-01-26T18:22:47.134Z,7.30
2023-01-26T18:25:36.545Z,6.88
2023-01-26T18:28:24.558Z,8.13
2023-01-26T18:31:13.614Z,6.78
2023-01-26T18:34:04.636Z,8.93
2023-01-26T18:36:53.004Z,7.10
2023-01-26T18:39:41.059Z,4.15
2023-01-26T18:42:29.064Z,6.20
2023-01-26T18:45:17.567Z,9.73
2023-01-26T18:48:06.219Z,6.53
2023-01-26T18:50:55.666Z,4.20
2023-01-26T18:53:43.595Z,3.75
2023-01-26T18:56:32.198Z,6.60
2023-01-26T18:59:20.581Z,5.38
2023-01-26T19:02:08.791Z,3.27
2023-01-26T19:04:57.415Z,4.65
2023-01-26T19:07:46.707Z,5.20
2023-01-26T19:10:35.591Z,3.35
2023-01-26T19:13:23.751Z,6.13
2023-01-26T19:16:11.724Z,7.40
2023-01-26T19:19:00.182Z,3.78
2023-01-26T19:21:48.493Z,6.35
2023-01-26T19:24:37.814Z,6.30
2023-01-26T19:27:25.846Z,7.43
2023-01-26T19:30:14.767Z,7.23
2023-01-26T19:33:20.617Z,6.13
2023-01-26T19:36:09.864Z,3.17
2023-01-26T19:38:59.846Z,4.57
2023-01-26T19:41:50.092Z,9.02
2023-01-26T19:44:38.108Z,6.63
2023-01-26T19:47:26.265Z,6.85
2023-01-26T19:50:14.344Z,3.65
2023-01-26T19:53:02.636Z,7.88
2023-01-26T19:55:50.692Z,6.22
2023-01-26T19:58:40.377Z,7.50
2023-01-26T20:01:30.125Z,10.55
2023-01-26T20:04:18.274Z,8.90
2023-01-26T20:07:07.886Z,6.90
2023-01-26T20:09:55.826Z,7.80
2023-01-26T20:12:43.778Z,10.50
2023-01-26T20:15:34.497Z,6.85
2023-01-26T20:18:22.570Z,6.97
2023-01-26T20:21:10.557Z,7.82
2023-01-26T20:24:05.338Z,8.15
2023-01-26T20:26:54.015Z,6.13
2023-01-26T20:29:42.116Z,8.48
2023-01-26T20:32:31.536Z,8.93
2023-01-26T20:35:19.799Z,7.32
2023-01-26T20:38:08.113Z,8.80
2023-01-26T20:40:56.092Z,7.97
2023-01-26T20:43:58.560Z,5.65
2023-01-26T20:46:48.353Z,8.30
2023-01-26T20:49:38.425Z,8.13
2023-01-26T20:52:26.408Z,6.00
2023-01-26T20:55:14.477Z,10.87
2023-01-26T20:58:02.693Z,7.10
2023-01-26T21:00:50.970Z,8.23
2023-01-26T21:03:39.695Z,8.55
2023-01-26T21:06:29.982Z,5.05
2023-01-26T21:09:18.605Z,13.47
2023-01-26T21:12:07.002Z,7.20
2023-01-26T21:14:54.959Z,8.32
2023-01-26T21:17:42.909Z,17.30
2023-01-26T21:20:30.892Z,10.55
2023-01-26T21:23:20.253Z,11.63
2023-01-26T21:26:11.247Z,9.43
2023-01-26T21:29:00.664Z,16.45
2023-01-26T21:31:51.149Z,9.45
2023-01-26T21:34:39.139Z,8.55
2023-01-26T21:37:27.107Z,7.17
2023-01-26T21:40:16.572Z,11.18
2023-01-26T21:43:04.560Z,7.93
2023-01-26T21:45:55.956Z,9.50
2023-01-26T21:48:43.951Z,9.88
2023-01-26T21:52:04.557Z,5.77
2023-01-26T21:54:52.464Z,7.53
2023-01-26T21:57:59.529Z,8.65
2023-01-26T22:00:47.895Z,6.50
2023-01-26T22:03:36.789Z,11.38
2023-01-26T22:06:25.265Z,12.13
2023-01-26T22:09:14.732Z,9.32
2023-01-26T22:12:02.844Z,6.25
2023-01-26T22:14:53.014Z,13.90
2023-01-26T22:17:41.052Z,9.98
2023-01-26T22:20:28.993Z,9.07
2023-01-26T22:23:17.034Z,8.73
2023-01-26T22:26:06.170Z,11.27
2023-01-26T22:28:55.675Z,8.77
2023-01-26T22:31:45.230Z,6.60
2023-01-26T22:34:33.350Z,12.53
2023-01-26T22:37:23.117Z,10.10
2023-01-26T22:40:12.741Z,9.65
2023-01-26T22:43:00.835Z,9.88
2023-01-26T22:45:49.234Z,6.82
2023-01-26T22:48:39.229Z,9.97
2023-01-26T22:51:29.173Z,8.20
2023-01-26T22:54:17.234Z,8.57
2023-01-26T22:57:05.269Z,12.00
2023-01-26T22:59:53.259Z,9.45
2023-01-26T23:02:41.152Z,9.57
2023-01-26T23:05:31.851Z,8.48
2023-01-26T23:08:19.789Z,10.32
2023-01-26T23:11:09.072Z,8.70
2023-01-26T23:13:59.025Z,14.82
2023-01-26T23:16:47.065Z,9.90
2023-01-26T23:19:35.113Z,11.20
2023-01-26T23:22:24.498Z,12.48
2023-01-26T23:25:30.228Z,14.93
2023-01-26T23:28:18.599Z,12.88
2023-01-26T23:31:07.453Z,10.33
2023-01-26T23:33:55.528Z,11.57
2023-01-26T23:36:43.456Z,13.02
2023-01-26T23:39:32.835Z,9.02
2023-01-26T23:42:20.874Z,8.60
2023-01-26T23:45:09.599Z,7.97
2023-01-26T23:47:57.577Z,9.23
2023-01-26T23:50:45.866Z,13.05
2023-01-26T23:53:34.158Z,13.95
2023-01-26T23:56:23.689Z,5.13
2023-01-26T23:59:11.632Z,8.93
